Time;durP1;ratioP1;P1;durP2;ratioP2;P2;SDS_P1;SDS_P2;PMS_P1;PMS_P2;Temp;Humidity;BMP_temperature;BMP_pressure;BME280_temperature;BME280_humidity;BME280_pressure;Samples;Min_cycle;Max_cycle;Signal;HPM_P1;HPM_P2
2022/12/25 00:00:41;;;;;;;;;;;1.90;87.40;;;-151.14;100.00;62537.16;4972503;28;19936;-80
2022/12/25 00:03:10;;;;;;;;;;;1.90;87.50;;;-151.14;100.00;62537.16;4991911;28;19922;-80
2022/12/25 00:05:38;;;;;;;;;;;1.90;87.40;;;-151.14;100.00;62537.16;4991171;28;19921;-80
2022/12/25 00:08:06;;;;;;;;;;;1.90;87.40;;;-151.14;100.00;62537.16;4960173;28;19922;-80
2022/12/25 00:10:34;;;;;;;;;;;1.90;87.40;;;-151.14;100.00;62537.16;4961903;28;19928;-80
2022/12/25 00:13:02;;;;;;;;;;;1.90;87.40;;;-151.14;100.00;62537.16;4978215;28;19921;-80
2022/12/25 00:15:30;;;;;;;;;;;1.90;87.40;;;-151.14;100.00;62537.16;4993722;28;19922;-80
2022/12/25 00:17:58;;;;;;;;;;;1.90;87.30;;;-151.14;100.00;62537.16;4961835;28;19922;-80
2022/12/25 00:20:27;;;;;;;;;;;1.90;87.40;;;-151.14;100.00;62537.16;4978004;28;19944;-80
2022/12/25 00:22:56;;;;;;;;;;;1.90;87.40;;;-151.14;100.00;62537.16;4961838;28;19922;-80
2022/12/25 00:25:24;;;;;;;;;;;1.90;87.50;;;-151.14;100.00;62537.16;4961402;28;19971;-80
2022/12/25 00:27:52;;;;;;;;;;;1.90;87.40;;;-151.14;100.00;62537.16;4977733;28;19985;-80
2022/12/25 00:30:20;;;;;;;;;;;1.90;87.40;;;-151.14;100.00;62537.16;4977756;28;19921;-80
2022/12/25 00:32:47;;;;;;;;;;;1.90;87.50;;;-151.14;100.00;62537.16;4995196;28;20202;-80
2022/12/25 00:35:15;;;;;;;;;;;1.90;87.60;;;-151.14;100.00;62537.16;4960977;28;19922;-80
2022/12/25 00:37:46;;;;;;;;;;;1.90;87.50;;;-151.14;100.00;62537.16;4961608;28;20122;-80
2022/12/25 00:40:14;;;;;;;;;;;1.90;87.40;;;-151.14;100.00;62537.16;4977816;28;19921;-81
2022/12/25 00:42:42;;;;;;;;;;;1.90;87.40;;;-151.14;100.00;62537.16;4961570;28;19922;-81
2022/12/25 00:45:10;;;;;;;;;;;1.90;87.50;;;-151.14;100.00;62537.16;4960991;28;19929;-80
2022/12/25 00:47:38;;;;;;;;;;;1.90;87.60;;;-151.14;100.00;62537.16;4977700;28;19922;-81
2022/12/25 00:50:07;;;;;;;;;;;1.90;87.40;;;-151.14;100.00;62537.16;4961305;28;19921;-80
2022/12/25 00:52:35;;;;;;;;;;;1.90;87.40;;;-151.14;100.00;62537.16;4961558;28;20239;-81
2022/12/25 00:55:05;;;;;;;;;;;1.90;88.20;;;-151.14;100.00;62537.16;4977122;28;19922;-81
2022/12/25 00:57:33;;;;;;;;;;;1.90;87.40;;;-151.14;100.00;62537.16;4960942;28;19928;-81
2022/12/25 01:00:01;;;;;;;;;;;1.90;87.50;;;-151.14;100.00;62537.16;4961181;28;19928;-81
2022/12/25 01:02:29;;;;;;;;;;;1.90;87.40;;;-151.14;100.00;62537.16;4974559;28;19922;-80
2022/12/25 01:04:57;;;;;;;;;;;1.90;87.40;;;-151.14;100.00;62537.16;4976577;28;19921;-80
2022/12/25 01:07:25;;;;;;;;;;;1.90;87.40;;;-151.14;100.00;62537.16;4961131;28;20129;-81
2022/12/25 01:12:41;;;;;;;;;;;1.90;87.40;;;-151.14;100.00;62537.16;4960838;28;19928;-80
2022/12/25 01:15:10;;;;;;;;;;;1.90;87.50;;;-151.14;100.00;62537.16;4976927;28;19922;-80
2022/12/25 01:17:38;;;;;;;;;;;1.90;87.50;;;-151.14;100.00;62537.16;4993383;28;19928;-81
2022/12/25 01:20:08;;;;;;;;;;;1.90;87.40;;;-151.14;100.00;62537.16;4976217;28;19928;-81
2022/12/25 01:22:36;;;;;;;;;;;1.90;88.40;;;-151.14;100.00;62537.16;4960798;28;20130;-81
2022/12/25 01:25:05;;;;;;;;;;;1.90;87.50;;;-151.14;100.00;62537.16;4989446;28;19922;-81
2022/12/25 01:27:32;;;;;;;;;;;1.90;87.40;;;-151.14;100.00;62537.16;4992911;28;19943;-81
2022/12/25 01:30:02;;;;;;;;;;;1.90;87.40;;;-151.14;100.00;62537.16;4976752;28;20098;-81
2022/12/25 01:32:30;;;;;;;;;;;1.90;87.40;;;-151.14;100.00;62537.16;4993147;28;20213;-81
2022/12/25 01:34:58;;;;;;;;;;;1.90;87.40;;;-151.14;100.00;62537.16;4960362;28;20214;-80
2022/12/25 01:37:26;;;;;;;;;;;1.90;87.30;;;-151.14;100.00;62537.16;4976847;28;19922;-80
2022/12/25 01:39:53;;;;;;;;;;;1.90;87.40;;;-151.14;100.00;62537.16;4976486;28;19922;-80
2022/12/25 01:42:22;;;;;;;;;;;1.90;87.40;;;-151.14;100.00;62537.16;5009367;28;19928;-81
2022/12/25 01:45:36;;;;;;;;;;;1.90;87.40;;;-151.14;100.00;62537.16;4993597;28;19923;-81
2022/12/25 01:48:07;;;;;;;;;;;1.90;87.40;;;-151.14;100.00;62537.16;4994039;28;19922;-81
2022/12/25 01:50:35;;;;;;;;;;;1.90;87.40;;;-151.14;100.00;62537.16;4956970;28;19922;-81
2022/12/25 01:53:03;;;;;;;;;;;1.90;87.40;;;-151.14;100.00;62537.16;4973292;28;19928;-81
2022/12/25 01:55:31;;;;;;;;;;;1.90;87.40;;;-151.14;100.00;62537.16;4972937;28;19929;-81
2022/12/25 01:57:59;;;;;;;;;;;1.90;87.40;;;-151.14;100.00;62537.16;4941298;28;19922;-81
2022/12/25 02:00:28;;;;;;;;;;;2.00;87.40;;;-151.14;100.00;62537.16;4988856;28;20105;-80
2022/12/25 02:02:56;;;;;;;;;;;1.90;87.40;;;-151.14;100.00;62537.16;4972857;28;19948;-80
2022/12/25 02:05:26;;;;;;;;;;;1.90;88.20;;;-151.14;100.00;62537.16;4956778;28;19928;-81
2022/12/25 02:07:54;;;;;;;;;;;1.90;87.40;;;-151.14;100.00;62537.16;4957331;28;19928;-80
2022/12/25 02:10:21;;;;;;;;;;;1.90;87.40;;;-151.14;100.00;62537.16;4956837;28;19922;-80
2022/12/25 02:12:50;;;;;;;;;;;1.90;87.30;;;-151.14;100.00;62537.16;4956940;28;19937;-81
2022/12/25 02:15:19;;;;;;;;;;;1.90;87.30;;;-151.14;100.00;62537.16;4956416;28;19922;-80
2022/12/25 02:17:52;;;;;;;;;;;1.90;87.40;;;-151.14;100.00;62537.16;4956833;28;19929;-81
2022/12/25 02:20:53;;;;;;;;;;;1.90;87.40;;;-151.14;100.00;62537.16;4972995;28;19922;-81
2022/12/25 02:24:05;;;;;;;;;;;1.90;87.40;;;-151.14;100.00;62537.16;4988755;28;20210;-81
2022/12/25 02:27:02;;;;;;;;;;;1.90;87.40;;;-151.14;100.00;62537.16;4938946;28;19944;-80
2022/12/25 02:29:33;;;;;;;;;;;1.90;87.30;;;-151.14;100.00;62537.16;4968173;28;19923;-80
2022/12/25 02:32:04;;;;;;;;;;;1.90;87.40;;;-151.14;100.00;62537.16;4971837;28;20214;-81
2022/12/25 02:34:34;;;;;;;;;;;2.00;87.40;;;-151.14;100.00;62537.16;4988786;28;19922;-81
2022/12/25 02:37:04;;;;;;;;;;;2.00;87.40;;;-151.14;100.00;62537.16;4972527;28;20125;-80
2022/12/25 02:42:23;;;;;;;;;;;2.00;87.40;;;-151.14;100.00;62537.16;4956231;28;19922;-80
2022/12/25 03:07:10;;;;;;;;;;;2.00;87.40;;;-151.14;100.00;62537.16;4975236;28;19922;-80
2022/12/25 03:12:32;;;;;;;;;;;2.00;87.40;;;-151.14;100.00;62537.16;5008037;28;19929;-80
2022/12/25 03:17:47;;;;;;;;;;;2.00;87.30;;;-151.14;100.00;62537.16;4974983;28;19936;-80
2022/12/25 03:28:31;;;;;;;;;;;2.00;87.40;;;-151.14;100.00;62537.16;4975144;28;19929;-80
2022/12/25 03:31:11;;;;;;;;;;;2.00;87.40;;;-151.14;100.00;62537.16;4958836;28;19989;-80
2022/12/25 03:35:21;;;;;;;;;;;2.00;87.40;;;-151.14;100.00;62537.16;4974829;28;19929;-80
2022/12/25 03:36:43;;;;;;;;;;;2.00;87.60;;;-151.14;100.00;62537.16;4957511;28;19993;-80
2022/12/25 04:37:40;;;;;;;;;;;2.00;87.40;;;-151.14;100.00;62537.16;4971229;28;19928;-80
2022/12/25 04:40:10;;;;;;;;;;;2.00;87.40;;;-151.14;100.00;62537.16;4987024;28;19926;-80
2022/12/25 04:42:38;;;;;;;;;;;2.00;87.40;;;-151.14;100.00;62537.16;4954871;28;20121;-80
2022/12/25 04:45:07;;;;;;;;;;;2.00;87.40;;;-151.14;100.00;62537.16;4954399;28;19928;-80
2022/12/25 04:47:35;;;;;;;;;;;2.00;87.40;;;-151.14;100.00;62537.16;4954908;28;19922;-80
2022/12/25 04:50:03;;;;;;;;;;;2.00;87.40;;;-151.14;100.00;62537.16;4954627;28;20232;-80
2022/12/25 04:52:35;;;;;;;;;;;2.00;87.40;;;-151.14;100.00;62537.16;4971863;28;20114;-80
2022/12/25 04:55:03;;;;;;;;;;;2.00;87.40;;;-151.14;100.00;62537.16;4971995;28;19928;-80
2022/12/25 04:57:32;;;;;;;;;;;2.00;87.40;;;-151.14;100.00;62537.16;4942061;28;20094;-81
2022/12/25 05:00:00;;;;;;;;;;;2.00;87.40;;;-151.14;100.00;62537.16;4957907;28;19922;-80
2022/12/25 05:02:28;;;;;;;;;;;2.00;87.40;;;-151.14;100.00;62537.16;4957854;28;19922;-80
2022/12/25 05:04:56;;;;;;;;;;;2.00;87.40;;;-151.14;100.00;62537.16;4973456;28;19922;-80
2022/12/25 05:07:24;;;;;;;;;;;2.00;87.50;;;-151.14;100.00;62537.16;4980070;28;19944;-80
2022/12/25 05:09:52;;;;;;;;;;;2.00;87.40;;;-151.14;100.00;62537.16;4960936;28;19921;-80
2022/12/25 05:12:20;;;;;;;;;;;2.00;87.40;;;-151.14;100.00;62537.16;4977385;28;19929;-80
2022/12/25 05:14:49;;;;;;;;;;;2.00;87.40;;;-151.14;100.00;62537.16;4992725;28;20210;-80
2022/12/25 05:17:17;;;;;;;;;;;2.00;87.40;;;-151.14;100.00;62537.16;4960760;28;19926;-79
2022/12/25 05:19:45;;;;;;;;;;;2.00;87.40;;;-151.14;100.00;62537.16;4976993;28;19928;-80
2022/12/25 05:22:13;;;;;;;;;;;2.00;87.40;;;-151.14;100.00;62537.16;4976630;28;19928;-80
2022/12/25 05:24:41;;;;;;;;;;;2.00;87.40;;;-151.14;100.00;62537.16;4976125;28;19928;-80
2022/12/25 05:27:09;;;;;;;;;;;2.00;87.40;;;-151.14;100.00;62537.16;4994244;28;19928;-80
2022/12/25 05:29:37;;;;;;;;;;;2.00;87.40;;;-151.14;100.00;62537.16;4976728;28;19928;-80
2022/12/25 05:32:06;;;;;;;;;;;2.00;87.40;;;-151.14;100.00;62537.16;4976788;28;19921;-80
2022/12/25 05:34:34;;;;;;;;;;;2.10;87.50;;;-151.14;100.00;62537.16;4960310;28;19922;-80
2022/12/25 05:37:02;;;;;;;;;;;2.00;87.40;;;-151.14;100.00;62537.16;4960350;28;19921;-80
2022/12/25 05:39:30;;;;;;;;;;;2.00;87.50;;;-151.14;100.00;62537.16;4976753;28;19936;-80
2022/12/25 05:41:58;;;;;;;;;;;2.10;87.60;;;-151.14;100.00;62537.16;4960494;28;19922;-80
2022/12/25 05:44:26;;;;;;;;;;;2.10;87.50;;;-151.14;100.00;62537.16;4960372;28;19922;-80
2022/12/25 05:46:53;;;;;;;;;;;2.10;87.60;;;-151.14;100.00;62537.16;4993840;28;20205;-80
2022/12/25 05:49:23;;;;;;;;;;;2.10;87.60;;;-151.14;100.00;62537.16;4993586;28;19922;-80
2022/12/25 05:51:51;;;;;;;;;;;2.10;87.60;;;-151.14;100.00;62537.16;4976316;28;19936;-80
2022/12/25 05:54:19;;;;;;;;;;;2.00;87.40;;;-151.14;100.00;62537.16;5008985;28;19928;-80
2022/12/25 05:56:47;;;;;;;;;;;2.10;87.50;;;-151.14;100.00;62537.16;4959987;28;19922;-80
2022/12/25 05:59:15;;;;;;;;;;;2.10;87.50;;;-151.14;100.00;62537.16;4975951;28;19925;-80
2022/12/25 06:01:43;;;;;;;;;;;2.10;87.50;;;-151.14;100.00;62537.16;4976233;28;20145;-80
2022/12/25 06:04:11;;;;;;;;;;;2.10;87.50;;;-151.14;100.00;62537.16;4960044;28;19922;-80
2022/12/25 06:06:40;;;;;;;;;;;2.10;87.50;;;-151.14;100.00;62537.16;4959429;28;19922;-80
2022/12/25 06:09:08;;;;;;;;;;;2.10;87.50;;;-151.14;100.00;62537.16;4960188;28;19921;-80
2022/12/25 06:11:36;;;;;;;;;;;2.10;87.50;;;-151.14;100.00;62537.16;4976319;28;19921;-80
2022/12/25 06:14:04;;;;;;;;;;;2.10;87.60;;;-151.14;100.00;62537.16;4959709;28;19928;-80
2022/12/25 06:16:32;;;;;;;;;;;2.10;87.50;;;-151.14;100.00;62537.16;4975895;28;19921;-80
2022/12/25 06:19:00;;;;;;;;;;;2.10;87.60;;;-151.14;100.00;62537.16;4976083;28;20239;-80
2022/12/25 06:21:28;;;;;;;;;;;2.10;87.50;;;-151.14;100.00;62537.16;4976019;28;19928;-80
2022/12/25 06:23:59;;;;;;;;;;;2.10;87.60;;;-151.14;100.00;62537.16;4975929;28;20209;-80
2022/12/25 06:26:27;;;;;;;;;;;2.10;87.60;;;-151.14;100.00;62537.16;4959674;28;20205;-80
2022/12/25 06:28:55;;;;;;;;;;;2.10;87.50;;;-151.14;100.00;62537.16;4960104;28;19926;-80
2022/12/25 06:31:23;;;;;;;;;;;2.10;87.60;;;-151.14;100.00;62537.16;4993005;28;19921;-80
2022/12/25 06:33:51;;;;;;;;;;;2.10;87.60;;;-151.14;100.00;62537.16;4975796;28;19925;-80
2022/12/25 06:36:20;;;;;;;;;;;2.10;87.50;;;-151.14;100.00;62537.16;4959262;28;19922;-81
2022/12/25 06:38:48;;;;;;;;;;;2.10;87.60;;;-151.14;100.00;62537.16;4959718;28;19928;-80
2022/12/25 06:41:19;;;;;;;;;;;2.10;87.60;;;-151.14;100.00;62537.16;4992102;28;19922;-80
2022/12/25 06:43:48;;;;;;;;;;;2.10;87.60;;;-151.14;100.00;62537.16;4975312;28;19921;-80
2022/12/25 06:46:16;;;;;;;;;;;2.10;87.60;;;-151.14;100.00;62537.16;4991604;28;19922;-80
2022/12/25 06:48:48;;;;;;;;;;;2.10;87.50;;;-151.14;100.00;62537.16;4959662;28;19922;-80
2022/12/25 06:51:16;;;;;;;;;;;2.10;87.40;;;-151.14;100.00;62537.16;4975338;28;20121;-80
2022/12/25 06:53:43;;;;;;;;;;;2.10;87.50;;;-151.14;100.00;62537.16;4991423;28;19928;-80
2022/12/25 06:56:14;;;;;;;;;;;2.10;87.50;;;-151.14;100.00;62537.16;4991294;28;20231;-80
2022/12/25 06:58:44;;;;;;;;;;;2.10;87.50;;;-151.14;100.00;62537.16;4991869;28;19922;-80
2022/12/25 07:01:14;;;;;;;;;;;2.10;87.50;;;-151.14;100.00;62537.16;4975432;28;19922;-80
2022/12/25 07:03:43;;;;;;;;;;;2.10;87.50;;;-151.14;100.00;62537.16;4959012;28;19922;-80
2022/12/25 07:06:11;;;;;;;;;;;2.10;87.50;;;-151.14;100.00;62537.16;4975094;28;19928;-80
2022/12/25 07:08:39;;;;;;;;;;;2.10;87.50;;;-151.14;100.00;62537.16;4975412;28;20119;-80
2022/12/25 07:11:07;;;;;;;;;;;2.10;87.40;;;-151.14;100.00;62537.16;4992330;28;19922;-81
2022/12/25 07:13:35;;;;;;;;;;;2.10;87.50;;;-151.14;100.00;62537.16;4990889;28;19982;-80
2022/12/25 07:16:06;;;;;;;;;;;2.10;87.40;;;-151.14;100.00;62537.16;4974869;28;19922;-81
2022/12/25 07:18:34;;;;;;;;;;;2.10;87.40;;;-151.14;100.00;62537.16;4974556;28;19937;-80
2022/12/25 07:21:06;;;;;;;;;;;2.10;87.50;;;-151.14;100.00;62537.16;4992585;28;19922;-80
2022/12/25 07:23:34;;;;;;;;;;;2.10;87.40;;;-151.14;100.00;62537.16;5007356;28;19926;-80
2022/12/25 07:26:02;;;;;;;;;;;2.10;87.50;;;-151.14;100.00;62537.16;4974715;28;19937;-80
2022/12/25 07:28:30;;;;;;;;;;;2.10;87.50;;;-151.14;100.00;62537.16;4959135;28;19921;-80
2022/12/25 07:31:01;;;;;;;;;;;2.20;87.50;;;-151.14;100.00;62537.16;4991193;28;19922;-80
2022/12/25 07:33:31;;;;;;;;;;;2.20;87.40;;;-151.14;100.00;62537.16;4958829;28;20210;-80
2022/12/25 07:35:59;;;;;;;;;;;2.20;87.30;;;-151.14;100.00;62537.16;4974877;28;19921;-80
2022/12/25 07:38:27;;;;;;;;;;;2.20;87.40;;;-151.14;100.00;62537.16;4975024;28;19922;-80
2022/12/25 07:40:56;;;;;;;;;;;2.20;87.40;;;-151.14;100.00;62537.16;4974755;28;19921;-80
2022/12/25 07:43:24;;;;;;;;;;;2.20;87.40;;;-151.14;100.00;62537.16;4990558;28;20203;-80
2022/12/25 07:45:55;;;;;;;;;;;2.20;87.30;;;-151.14;100.00;62537.16;4974568;28;20122;-80
2022/12/25 07:48:23;;;;;;;;;;;2.20;87.30;;;-151.14;100.00;62537.16;4975187;28;19922;-80
2022/12/25 07:50:57;;;;;;;;;;;2.20;87.30;;;-151.14;100.00;62537.16;4974780;28;19972;-80
2022/12/25 07:53:31;;;;;;;;;;;2.20;87.30;;;-151.14;100.00;62537.16;4990701;28;19928;-80
2022/12/25 07:56:12;;;;;;;;;;;2.20;87.30;;;-151.14;100.00;62537.16;5007280;28;20210;-81
2022/12/25 07:58:40;;;;;;;;;;;2.20;87.30;;;-151.14;100.00;62537.16;4974382;28;20091;-80
2022/12/25 08:01:09;;;;;;;;;;;2.20;87.20;;;-151.14;100.00;62537.16;4992109;28;19922;-81
2022/12/25 08:03:37;;;;;;;;;;;2.20;87.30;;;-151.14;100.00;62537.16;4974439;28;19922;-80
2022/12/25 08:06:08;;;;;;;;;;;2.20;87.30;;;-151.14;100.00;62537.16;4973966;28;19928;-80
2022/12/25 08:08:36;;;;;;;;;;;2.20;87.40;;;-151.14;100.00;62537.16;4958771;28;19944;-80
2022/12/25 08:11:04;;;;;;;;;;;2.20;87.30;;;-151.14;100.00;62537.16;4974530;28;19936;-80
2022/12/25 08:13:32;;;;;;;;;;;2.30;87.40;;;-151.14;100.00;62537.16;4974071;28;20131;-80
2022/12/25 08:16:00;;;;;;;;;;;2.30;87.30;;;-151.14;100.00;62537.16;4974215;28;19928;-80
2022/12/25 08:18:29;;;;;;;;;;;2.30;87.20;;;-151.14;100.00;62537.16;4974534;28;20209;-80
2022/12/25 08:20:56;;;;;;;;;;;2.30;87.20;;;-151.14;100.00;62537.16;4958370;28;20121;-80
2022/12/25 08:23:26;;;;;;;;;;;2.30;87.40;;;-151.14;100.00;62537.16;4974075;28;19928;-80
2022/12/25 08:25:54;;;;;;;;;;;2.30;87.30;;;-151.14;100.00;62537.16;4974206;28;19928;-81
2022/12/25 08:28:22;;;;;;;;;;;2.30;87.30;;;-151.14;100.00;62537.16;4990359;28;19928;-80
2022/12/25 08:30:50;;;;;;;;;;;2.30;87.20;;;-151.14;100.00;62537.16;5009498;28;19921;-80
2022/12/25 08:33:18;;;;;;;;;;;2.30;87.20;;;-151.14;100.00;62537.16;4961563;28;19937;-80
2022/12/25 08:35:46;;;;;;;;;;;2.30;87.20;;;-151.14;100.00;62537.16;4977578;28;19922;-80
2022/12/25 08:38:14;;;;;;;;;;;2.30;87.20;;;-151.14;100.00;62537.16;4961864;28;19921;-81
2022/12/25 08:40:44;;;;;;;;;;;2.30;87.30;;;-151.14;100.00;62537.16;4977578;28;19928;-80
2022/12/25 08:43:15;;;;;;;;;;;2.30;87.30;;;-151.14;100.00;62537.16;4993737;28;19922;-80
2022/12/25 08:45:46;;;;;;;;;;;2.30;87.20;;;-151.14;100.00;62537.16;4961223;28;20117;-80
2022/12/25 08:48:14;;;;;;;;;;;2.30;87.20;;;-151.14;100.00;62537.16;4993570;28;19922;-80
2022/12/25 08:50:45;;;;;;;;;;;2.40;87.20;;;-151.14;100.00;62537.16;4977306;28;20234;-80
2022/12/25 08:53:19;;;;;;;;;;;2.40;87.20;;;-151.14;100.00;62537.16;4961094;28;19921;-80
2022/12/25 08:55:48;;;;;;;;;;;2.40;87.20;;;-151.14;100.00;62537.16;4993100;28;19921;-81
2022/12/25 08:58:19;;;;;;;;;;;2.40;87.20;;;-151.14;100.00;62537.16;4977628;28;20248;-80
2022/12/25 09:00:48;;;;;;;;;;;2.40;87.20;;;-151.14;100.00;62537.16;4961528;28;19972;-80
2022/12/25 09:03:19;;;;;;;;;;;2.40;87.20;;;-151.14;100.00;62537.16;4961199;28;19944;-80
2022/12/25 09:05:47;;;;;;;;;;;2.40;87.30;;;-151.14;100.00;62537.16;4977302;28;19922;-80
2022/12/25 09:08:15;;;;;;;;;;;2.40;87.30;;;-151.14;100.00;62537.16;4961254;28;19921;-80
2022/12/25 09:10:43;;;;;;;;;;;2.40;87.30;;;-151.14;100.00;62537.16;4960980;28;19928;-81
2022/12/25 09:13:12;;;;;;;;;;;2.40;87.20;;;-151.14;100.00;62537.16;4993575;28;19937;-80
2022/12/25 09:15:40;;;;;;;;;;;2.40;87.20;;;-151.14;100.00;62537.16;4960849;28;19921;-80
2022/12/25 09:18:08;;;;;;;;;;;2.40;87.30;;;-151.14;100.00;62537.16;4961017;28;19928;-81
2022/12/25 09:20:36;;;;;;;;;;;2.40;87.20;;;-151.14;100.00;62537.16;4961260;28;19922;-80
2022/12/25 09:23:04;;;;;;;;;;;2.40;87.30;;;-151.14;100.00;62537.16;4961060;28;19921;-80
2022/12/25 09:25:32;;;;;;;;;;;2.40;87.40;;;-151.14;100.00;62537.16;4992462;28;19922;-80
2022/12/25 09:28:00;;;;;;;;;;;2.40;87.40;;;-151.14;100.00;62537.16;4976828;28;19928;-81
2022/12/25 09:30:29;;;;;;;;;;;2.40;87.40;;;-151.14;100.00;62537.16;4976859;28;19928;-81
2022/12/25 09:32:57;;;;;;;;;;;2.50;87.50;;;-151.14;100.00;62537.16;4993124;28;20232;-80
2022/12/25 09:35:26;;;;;;;;;;;2.50;87.30;;;-151.14;100.00;62537.16;4976280;28;19928;-80
2022/12/25 09:37:54;;;;;;;;;;;2.50;87.30;;;-151.14;100.00;62537.16;4976798;28;19929;-80
2022/12/25 09:40:23;;;;;;;;;;;2.50;87.20;;;-151.14;100.00;62537.16;4960386;28;19929;-80
2022/12/25 09:42:53;;;;;;;;;;;2.50;88.00;;;-151.14;100.00;62537.16;4960797;28;19922;-80
2022/12/25 09:45:24;;;;;;;;;;;2.50;87.30;;;-151.14;100.00;62537.16;4960139;28;19922;-80
2022/12/25 09:47:55;;;;;;;;;;;2.50;87.30;;;-151.14;100.00;62537.16;4976568;28;19921;-80
2022/12/25 09:50:24;;;;;;;;;;;2.50;87.30;;;-151.14;100.00;62537.16;4976734;28;19928;-80
2022/12/25 09:52:55;;;;;;;;;;;2.50;87.30;;;-151.14;100.00;62537.16;4960564;28;19945;-80
2022/12/25 09:55:24;;;;;;;;;;;2.50;87.40;;;-151.14;100.00;62537.16;4975744;28;19922;-80
2022/12/25 09:57:52;;;;;;;;;;;2.50;87.30;;;-151.14;100.00;62537.16;4960595;28;19922;-81
2022/12/25 10:00:22;;;;;;;;;;;2.50;87.30;;;-151.14;100.00;62537.16;4976287;28;19921;-80
2022/12/25 10:03:01;;;;;;;;;;;2.50;87.50;;;-151.14;100.00;62537.16;4976416;28;20121;-81
2022/12/25 10:05:57;;;;;;;;;;;2.50;87.40;;;-151.14;100.00;62537.16;4959251;28;20117;-81
2022/12/25 10:08:35;;;;;;;;;;;2.50;87.40;;;-151.14;100.00;62537.16;4976209;28;19945;-81
2022/12/25 10:11:07;;;;;;;;;;;2.50;87.40;;;-151.14;100.00;62537.16;4993625;28;19921;-80
2022/12/25 10:13:47;;;;;;;;;;;2.50;87.50;;;-151.14;100.00;62537.16;4959993;28;20251;-80
2022/12/25 10:16:20;;;;;;;;;;;2.50;87.50;;;-151.14;100.00;62537.16;4959877;28;19922;-81
2022/12/25 10:18:59;;;;;;;;;;;2.50;87.50;;;-151.14;100.00;62537.16;4972256;28;19928;-80
2022/12/25 10:21:27;;;;;;;;;;;2.50;87.30;;;-151.14;100.00;62537.16;4975932;28;19928;-81
2022/12/25 10:24:02;;;;;;;;;;;2.60;87.30;;;-151.14;100.00;62537.16;4975852;28;19929;-81
2022/12/25 10:26:30;;;;;;;;;;;2.60;87.20;;;-151.14;100.00;62537.16;4975808;28;20218;-80
2022/12/25 10:29:00;;;;;;;;;;;2.60;87.20;;;-151.14;100.00;62537.16;4992293;28;19928;-81
2022/12/25 10:31:29;;;;;;;;;;;2.60;87.20;;;-151.14;100.00;62537.16;4959788;28;19922;-81
2022/12/25 10:33:58;;;;;;;;;;;2.60;87.20;;;-151.14;100.00;62537.16;4959835;28;19921;-81
2022/12/25 10:36:35;;;;;;;;;;;2.60;87.20;;;-151.14;100.00;62537.16;4975674;28;19928;-80
2022/12/25 10:39:06;;;;;;;;;;;2.60;87.30;;;-151.14;100.00;62537.16;4991557;28;19922;-81
2022/12/25 10:42:02;;;;;;;;;;;2.60;87.30;;;-151.14;100.00;62537.16;4992198;28;19928;-81
2022/12/25 10:44:47;;;;;;;;;;;2.60;87.30;;;-151.14;100.00;62537.16;4959515;28;19921;-80
2022/12/25 10:47:23;;;;;;;;;;;2.60;87.30;;;-151.14;100.00;62537.16;4975810;28;19928;-80
2022/12/25 10:49:55;;;;;;;;;;;2.60;87.30;;;-151.14;100.00;62537.16;4991060;28;20212;-80
2022/12/25 10:52:24;;;;;;;;;;;2.60;87.30;;;-151.14;100.00;62537.16;4992002;28;19922;-81
2022/12/25 10:54:52;;;;;;;;;;;2.60;87.40;;;-151.14;100.00;62537.16;4975049;28;19953;-80
2022/12/25 10:57:21;;;;;;;;;;;2.60;87.30;;;-151.14;100.00;62537.16;4975769;28;19922;-80
2022/12/25 10:59:49;;;;;;;;;;;2.70;87.40;;;-151.14;100.00;62537.16;4959053;28;19930;-80
2022/12/25 11:02:23;;;;;;;;;;;2.70;87.30;;;-151.14;100.00;62537.16;4975635;28;19921;-80
2022/12/25 11:04:51;;;;;;;;;;;2.70;87.20;;;-151.14;100.00;62537.16;4990858;28;20214;-80
2022/12/25 11:07:23;;;;;;;;;;;2.70;87.00;;;-151.14;100.00;62537.16;4959505;28;19928;-80
2022/12/25 11:09:52;;;;;;;;;;;2.70;86.90;;;-151.14;100.00;62537.16;4975212;28;19926;-81
2022/12/25 11:12:25;;;;;;;;;;;2.70;86.90;;;-151.14;100.00;62537.16;4959506;28;19922;-80
2022/12/25 11:14:57;;;;;;;;;;;2.70;86.90;;;-151.14;100.00;62537.16;4958721;28;19921;-80
2022/12/25 11:17:25;;;;;;;;;;;2.70;86.90;;;-151.14;100.00;62537.16;4959372;28;19922;-80
2022/12/25 11:19:59;;;;;;;;;;;2.70;86.90;;;-151.14;100.00;62537.16;4974873;28;19922;-80
2022/12/25 11:22:28;;;;;;;;;;;2.70;87.00;;;-151.14;100.00;62537.16;4959347;28;19922;-81
2022/12/25 11:24:56;;;;;;;;;;;2.70;87.10;;;-151.14;100.00;62537.16;4974704;28;19922;-80
2022/12/25 11:27:26;;;;;;;;;;;2.70;87.20;;;-151.14;100.00;62537.16;4959308;28;20232;-81
2022/12/25 11:29:56;;;;;;;;;;;2.70;87.10;;;-151.14;100.00;62537.16;4959021;28;19922;-80
2022/12/25 11:32:28;;;;;;;;;;;2.70;87.10;;;-151.14;100.00;62537.16;4959188;28;19928;-80
2022/12/25 11:34:56;;;;;;;;;;;2.70;87.20;;;-151.14;100.00;62537.16;4990704;28;19921;-80
2022/12/25 11:37:32;;;;;;;;;;;2.70;87.30;;;-151.14;100.00;62537.16;4958860;28;19921;-80
2022/12/25 11:40:01;;;;;;;;;;;2.70;87.50;;;-151.14;100.00;62537.16;4992187;28;19922;-80
2022/12/25 11:43:12;;;;;;;;;;;2.60;87.20;;;-151.14;100.00;62537.16;4991296;28;20236;-80
2022/12/25 11:45:46;;;;;;;;;;;2.60;87.30;;;-151.14;100.00;62537.16;4963951;28;19922;-80
2022/12/25 11:48:15;;;;;;;;;;;2.60;87.50;;;-151.14;100.00;62537.16;4955621;28;20214;-80
2022/12/25 11:50:48;;;;;;;;;;;2.60;87.40;;;-151.14;100.00;62537.16;4987091;28;19923;-80
2022/12/25 11:53:18;;;;;;;;;;;2.60;87.50;;;-151.14;100.00;62537.16;4971464;28;19932;-81
2022/12/25 11:55:53;;;;;;;;;;;2.60;87.60;;;-151.14;100.00;62537.16;4989731;28;19922;-80
2022/12/25 11:58:28;;;;;;;;;;;2.60;87.50;;;-151.14;100.00;62537.16;4991080;28;19922;-81
2022/12/25 12:00:56;;;;;;;;;;;2.60;87.60;;;-151.14;100.00;62537.16;4992013;28;19928;-81
2022/12/25 12:06:14;;;;;;;;;;;2.60;87.60;;;-151.14;100.00;62537.16;4976093;28;19928;-80
2022/12/25 12:09:05;;;;;;;;;;;2.60;87.60;;;-151.14;100.00;62537.16;4962093;28;19922;-80
2022/12/25 12:11:36;;;;;;;;;;;2.60;87.60;;;-151.14;100.00;62537.16;4994209;28;19922;-81
2022/12/25 12:14:17;;;;;;;;;;;2.60;87.60;;;-151.14;100.00;62537.16;4977905;28;19922;-80
2022/12/25 12:16:45;;;;;;;;;;;2.60;87.50;;;-151.14;100.00;62537.16;4962038;28;19922;-80
2022/12/25 12:19:13;;;;;;;;;;;2.60;87.60;;;-151.14;100.00;62537.16;4978092;28;19926;-80
2022/12/25 12:21:42;;;;;;;;;;;2.60;87.70;;;-151.14;100.00;62537.16;4995348;28;19928;-80
2022/12/25 12:24:12;;;;;;;;;;;2.60;87.60;;;-151.14;100.00;62537.16;4961341;28;19921;-80
2022/12/25 12:26:42;;;;;;;;;;;2.60;87.60;;;-151.14;100.00;62537.16;4961530;28;19922;-80
2022/12/25 12:29:22;;;;;;;;;;;2.60;87.70;;;-151.14;100.00;62537.16;4961867;28;20120;-80
2022/12/25 12:31:50;;;;;;;;;;;2.60;87.60;;;-151.14;100.00;62537.16;4961540;28;19929;-80
2022/12/25 12:34:25;;;;;;;;;;;2.60;87.70;;;-151.14;100.00;62537.16;4977925;28;19922;-81
2022/12/25 12:36:57;;;;;;;;;;;2.60;87.80;;;-151.14;100.00;62537.16;4993569;28;20231;-80
2022/12/25 12:39:31;;;;;;;;;;;2.60;87.80;;;-151.14;100.00;62537.16;4961690;28;20236;-80
2022/12/25 12:42:01;;;;;;;;;;;2.60;87.80;;;-151.14;100.00;62537.16;4977767;28;19936;-80
2022/12/25 12:44:32;;;;;;;;;;;2.60;87.80;;;-151.14;100.00;62537.16;4977703;28;19989;-80
2022/12/25 12:47:00;;;;;;;;;;;2.60;87.70;;;-151.14;100.00;62537.16;4961657;28;19922;-80
2022/12/25 12:49:28;;;;;;;;;;;2.60;87.60;;;-151.14;100.00;62537.16;4977454;28;19922;-80
2022/12/25 12:52:04;;;;;;;;;;;2.60;87.80;;;-151.14;100.00;62537.16;4961477;28;19921;-80
2022/12/25 12:54:33;;;;;;;;;;;2.60;87.80;;;-151.14;100.00;62537.16;4992779;28;20122;-81
2022/12/25 12:57:02;;;;;;;;;;;2.60;87.80;;;-151.14;100.00;62537.16;4977574;28;19929;-80
2022/12/25 12:59:37;;;;;;;;;;;2.60;87.70;;;-151.14;100.00;62537.16;4993536;28;19921;-80